createdAt,value
2023-06-29T00:01:41.345Z,97335.22
2023-06-29T00:04:49.890Z,97338.53
2023-06-29T00:11:17.214Z,97340.84
2023-06-29T00:14:21.391Z,97326.88
2023-06-29T00:17:25.436Z,97332.06
2023-06-29T00:20:29.925Z,97332.44
2023-06-29T00:23:35.782Z,97341.63
2023-06-29T00:26:40.420Z,97335.59
2023-06-29T00:29:44.577Z,97336.13
2023-06-29T00:32:53.140Z,97335.78
2023-06-29T00:35:57.606Z,97337.59
2023-06-29T00:39:02.809Z,97336.56
2023-06-29T00:42:08.147Z,97333.69
2023-06-29T00:45:12.207Z,97335.19
2023-06-29T00:48:17.420Z,97335.69
2023-06-29T00:51:24.055Z,97338.34
2023-06-29T00:54:28.272Z,97340.44
2023-06-29T00:57:34.457Z,97335.97
2023-06-29T01:00:38.265Z,97338.88
2023-06-29T01:03:42.938Z,97347.69
2023-06-29T01:06:48.570Z,97346.19
2023-06-29T01:09:52.851Z,97341.66
2023-06-29T01:12:57.179Z,97336.00
2023-06-29T01:16:01.628Z,97337.47
2023-06-29T01:19:11.219Z,97345.53
2023-06-29T01:22:15.548Z,97332.72
2023-06-29T01:28:41.823Z,97344.41
2023-06-29T01:31:46.047Z,97339.38
2023-06-29T01:34:50.390Z,97334.97
2023-06-29T01:37:54.358Z,97343.91
2023-06-29T01:40:58.529Z,97331.34
2023-06-29T01:44:02.529Z,97340.84
2023-06-29T01:47:09.857Z,97343.44
2023-06-29T01:50:17.984Z,97335.50
2023-06-29T01:53:22.607Z,97335.22
2023-06-29T01:56:26.597Z,97329.94
2023-06-29T02:02:52.837Z,97320.88
2023-06-29T02:05:56.849Z,97323.13
2023-06-29T02:09:00.988Z,97321.59
2023-06-29T02:12:05.414Z,97324.75
2023-06-29T02:15:09.391Z,97316.06
2023-06-29T02:18:13.144Z,97322.31
2023-06-29T02:21:17.134Z,97324.78
2023-06-29T02:24:21.049Z,97327.78
2023-06-29T02:27:26.396Z,97332.91
2023-06-29T02:30:30.727Z,97335.22
2023-06-29T02:33:36.079Z,97326.88
2023-06-29T02:36:41.992Z,97331.09
2023-06-29T02:39:47.593Z,97327.59
2023-06-29T02:42:58.687Z,97331.84
2023-06-29T02:46:03.969Z,97337.50
2023-06-29T02:49:14.022Z,97328.06
2023-06-29T02:52:18.399Z,97327.31
2023-06-29T02:55:23.897Z,97325.41
2023-06-29T02:58:28.371Z,97318.19
2023-06-29T03:01:32.503Z,97317.56
2023-06-29T03:04:37.577Z,97320.81
2023-06-29T03:07:41.774Z,97320.34
2023-06-29T03:10:45.926Z,97323.81
2023-06-29T03:13:51.513Z,97325.59
2023-06-29T03:16:55.709Z,97323.81
2023-06-29T03:20:00.071Z,97324.50
2023-06-29T03:23:07.568Z,97329.66
2023-06-29T03:26:13.086Z,97331.22
2023-06-29T03:29:17.459Z,97337.28
2023-06-29T03:32:22.663Z,97336.69
2023-06-29T03:35:28.573Z,97328.06
2023-06-29T03:38:34.336Z,97341.72
2023-06-29T03:41:39.922Z,97344.41
2023-06-29T03:44:47.098Z,97345.41
2023-06-29T03:54:34.999Z,97337.47
2023-06-29T03:57:39.050Z,97340.16
2023-06-29T04:00:43.232Z,97340.94
2023-06-29T04:03:49.279Z,97344.41
2023-06-29T04:10:15.526Z,97339.75
2023-06-29T04:13:20.551Z,97331.03
2023-06-29T04:16:26.508Z,97333.81
2023-06-29T04:19:32.409Z,97339.38
2023-06-29T04:22:37.985Z,97334.13
2023-06-29T04:25:42.522Z,97322.81
2023-06-29T04:28:46.776Z,97327.44
2023-06-29T04:31:51.309Z,97331.81
2023-06-29T04:38:20.077Z,97329.34
2023-06-29T04:41:25.125Z,97337.69
2023-06-29T04:44:29.151Z,97333.03
2023-06-29T04:47:33.517Z,97328.81
2023-06-29T04:53:59.436Z,97340.63
2023-06-29T04:57:04.148Z,97341.94
2023-06-29T05:00:12.528Z,97341.72
2023-06-29T05:03:16.622Z,97336.19
2023-06-29T05:06:25.393Z,97341.34
2023-06-29T05:16:21.280Z,97339.09
2023-06-29T05:19:25.350Z,97348.16
2023-06-29T05:22:29.988Z,97347.25
2023-06-29T05:25:34.443Z,97349.75
2023-06-29T05:28:38.409Z,97346.00
2023-06-29T05:31:42.599Z,97332.72
2023-06-29T05:34:46.732Z,97338.84
2023-06-29T05:37:52.190Z,97339.22
2023-06-29T05:40:56.055Z,97346.06
2023-06-29T05:44:00.127Z,97337.69
2023-06-29T05:47:03.857Z,97335.22
2023-06-29T05:50:09.312Z,97340.38
2023-06-29T05:53:13.504Z,97343.25
2023-06-29T05:56:18.242Z,97338.22
2023-06-29T05:59:36.309Z,97348.34
2023-06-29T06:02:42.823Z,97356.72
2023-06-29T06:05:46.900Z,97352.53
2023-06-29T06:08:52.553Z,97354.88
2023-06-29T06:11:56.620Z,97358.34
2023-06-29T06:15:00.299Z,97364.28
2023-06-29T06:21:33.330Z,97367.19
2023-06-29T06:24:37.273Z,97364.34
2023-06-29T06:27:41.628Z,97362.53
2023-06-29T06:30:45.879Z,97362.22
2023-06-29T06:33:51.175Z,97357.56
2023-06-29T06:36:55.175Z,97358.91
2023-06-29T06:39:59.340Z,97368.66
2023-06-29T06:43:03.133Z,97367.16
2023-06-29T06:46:06.980Z,97362.03
2023-06-29T06:49:10.958Z,97372.91
2023-06-29T06:52:18.909Z,97358.47
2023-06-29T06:55:23.106Z,97368.09
2023-06-29T06:58:29.166Z,97364.47
2023-06-29T07:01:33.257Z,97362.38
2023-06-29T07:04:37.652Z,97361.59
2023-06-29T07:07:43.631Z,97361.50
2023-06-29T07:10:47.566Z,97367.16
2023-06-29T07:14:02.465Z,97372.47
2023-06-29T07:17:06.812Z,97375.91
2023-06-29T07:26:27.109Z,97365.09
2023-06-29T07:29:30.909Z,97365.94
2023-06-29T07:32:37.019Z,97367.66
2023-06-29T07:35:41.170Z,97364.94
2023-06-29T07:42:03.559Z,97371.78
2023-06-29T07:45:14.864Z,97364.81
2023-06-29T07:48:19.351Z,97369.03
2023-06-29T07:51:23.797Z,97376.63
2023-06-29T07:54:27.728Z,97384.00
2023-06-29T08:00:42.506Z,97386.63
2023-06-29T08:04:01.469Z,97384.56
2023-06-29T08:10:25.275Z,97382.94
2023-06-29T08:13:29.272Z,97377.38
2023-06-29T08:16:33.776Z,97378.00
2023-06-29T08:19:40.220Z,97369.56
2023-06-29T08:22:46.873Z,97376.66
2023-06-29T08:25:52.162Z,97376.13
2023-06-29T08:28:57.547Z,97363.94
2023-06-29T08:32:03.680Z,97360.09
2023-06-29T08:35:12.741Z,97371.16
2023-06-29T08:38:17.891Z,97372.53
2023-06-29T08:41:22.344Z,97372.13
2023-06-29T08:44:32.308Z,97375.72
2023-06-29T08:54:37.301Z,97358.75
2023-06-29T09:04:37.189Z,97354.50
2023-06-29T09:07:46.631Z,97351.69
2023-06-29T09:10:55.488Z,97349.72
2023-06-29T09:13:59.760Z,97349.59
2023-06-29T09:17:04.162Z,97345.91
2023-06-29T09:20:08.893Z,97347.56
2023-06-29T09:23:13.002Z,97356.06
2023-06-29T09:26:16.895Z,97355.72
2023-06-29T09:29:20.819Z,97345.94
2023-06-29T09:32:24.929Z,97341.78
2023-06-29T09:35:32.680Z,97344.09
2023-06-29T09:38:36.712Z,97344.03
2023-06-29T09:41:40.991Z,97339.97
2023-06-29T09:44:50.125Z,97342.97
2023-06-29T09:51:03.229Z,97331.59
2023-06-29T09:54:07.721Z,97329.09
2023-06-29T09:57:11.482Z,97325.50
2023-06-29T10:00:15.581Z,97330.66
2023-06-29T10:03:19.320Z,97319.38
2023-06-29T10:06:23.236Z,97321.25
2023-06-29T10:09:36.154Z,97330.34
2023-06-29T10:12:40.095Z,97319.66
2023-06-29T10:15:46.766Z,97319.66
2023-06-29T10:18:50.980Z,97318.69
2023-06-29T10:21:55.325Z,97321.81
2023-06-29T10:24:59.232Z,97318.88
2023-06-29T10:28:03.110Z,97316.75
2023-06-29T10:31:08.481Z,97323.38
2023-06-29T10:34:28.500Z,97309.47
2023-06-29T10:37:32.532Z,97299.84
2023-06-29T10:40:41.534Z,97300.34
2023-06-29T10:43:46.065Z,97290.88
2023-06-29T10:46:53.324Z,97301.78
2023-06-29T10:49:58.725Z,97292.66
2023-06-29T10:53:03.202Z,97296.31
2023-06-29T10:59:29.178Z,97292.47
2023-06-29T11:02:33.552Z,97290.19
2023-06-29T11:05:38.180Z,97283.59
2023-06-29T11:08:49.374Z,97278.50
2023-06-29T11:12:15.921Z,97276.16
2023-06-29T11:15:21.540Z,97280.03
2023-06-29T11:18:28.906Z,97263.31
2023-06-29T11:24:41.174Z,97267.91
2023-06-29T11:27:45.339Z,97261.84
2023-06-29T11:30:52.259Z,97259.47
2023-06-29T11:33:59.581Z,97260.78
2023-06-29T11:40:13.525Z,97239.78
2023-06-29T11:43:17.880Z,97243.03
2023-06-29T11:46:24.615Z,97238.84
2023-06-29T11:49:28.934Z,97234.16
2023-06-29T11:52:32.917Z,97235.94
2023-06-29T11:55:37.426Z,97229.66
2023-06-29T11:58:41.318Z,97222.34
2023-06-29T12:01:45.707Z,97220.22
2023-06-29T12:04:50.016Z,97222.06
2023-06-29T12:07:54.686Z,97210.00
2023-06-29T12:10:59.946Z,97217.44
2023-06-29T12:14:04.023Z,97211.09
2023-06-29T12:20:19.814Z,97195.47
2023-06-29T12:23:23.955Z,97197.66
2023-06-29T12:26:28.051Z,97195.22
2023-06-29T12:29:32.048Z,97182.25
2023-06-29T12:32:36.470Z,97179.72
2023-06-29T12:35:43.368Z,97174.66
2023-06-29T12:38:47.260Z,97176.47
2023-06-29T12:41:51.359Z,97167.06
2023-06-29T12:44:55.361Z,97176.38
2023-06-29T12:47:59.316Z,97165.91
2023-06-29T12:51:03.235Z,97175.19
2023-06-29T12:54:07.268Z,97163.38
2023-06-29T12:57:11.094Z,97164.28
2023-06-29T13:00:15.484Z,97163.53
2023-06-29T13:03:25.604Z,97156.06
2023-06-29T13:06:29.981Z,97149.72
2023-06-29T13:09:34.220Z,97153.91
2023-06-29T13:12:38.368Z,97151.56
2023-06-29T13:15:42.350Z,97143.34
2023-06-29T13:18:46.238Z,97143.50
2023-06-29T13:21:54.333Z,97142.16
2023-06-29T13:24:58.468Z,97142.16
2023-06-29T13:28:04.692Z,97135.88
2023-06-29T13:31:08.571Z,97137.75
2023-06-29T13:34:12.671Z,97130.59
2023-06-29T13:37:16.618Z,97126.38
2023-06-29T13:40:20.599Z,97118.09
2023-06-29T13:43:24.609Z,97119.84
2023-06-29T13:46:28.567Z,97115.44
2023-06-29T13:49:32.548Z,97114.97
2023-06-29T13:52:36.335Z,97105.19
2023-06-29T13:55:40.547Z,97096.59
2023-06-29T13:58:44.357Z,97096.84
2023-06-29T14:01:48.191Z,97097.06
2023-06-29T14:04:52.682Z,97093.13
2023-06-29T14:07:57.173Z,97090.31
2023-06-29T14:11:01.326Z,97097.72
2023-06-29T14:14:05.650Z,97097.88
2023-06-29T14:17:09.936Z,97100.13
2023-06-29T14:20:16.623Z,97101.00
2023-06-29T14:23:20.601Z,97093.03
2023-06-29T14:26:24.525Z,97090.69
2023-06-29T14:29:28.315Z,97094.47
2023-06-29T14:32:37.443Z,97088.22
2023-06-29T14:35:41.622Z,97082.44
2023-06-29T14:38:45.441Z,97080.13
2023-06-29T14:41:49.456Z,97076.72
2023-06-29T14:44:53.647Z,97070.56
2023-06-29T14:47:57.597Z,97071.00
2023-06-29T14:51:02.110Z,97068.06
2023-06-29T14:54:06.202Z,97066.94
2023-06-29T14:57:09.980Z,97063.69
2023-06-29T15:00:13.950Z,97059.63
2023-06-29T15:06:39.753Z,97049.53
2023-06-29T15:09:46.960Z,97051.91
2023-06-29T15:12:51.216Z,97050.75
2023-06-29T15:15:55.355Z,97046.34
2023-06-29T15:19:00.558Z,97049.63
2023-06-29T15:22:04.925Z,97040.44
2023-06-29T15:25:09.834Z,97043.22
2023-06-29T15:28:14.192Z,97035.72
2023-06-29T15:31:20.473Z,97032.97
2023-06-29T15:34:26.744Z,97030.72
2023-06-29T15:37:30.942Z,97033.56
2023-06-29T15:40:35.630Z,97016.13
2023-06-29T15:43:40.169Z,97027.38
2023-06-29T15:46:44.137Z,97013.19
2023-06-29T15:49:48.132Z,97016.72
2023-06-29T15:52:55.825Z,97015.41
2023-06-29T15:55:59.754Z,97023.81
2023-06-29T15:59:03.638Z,97016.34
2023-06-29T16:02:08.021Z,97021.03
2023-06-29T16:05:12.240Z,97010.78
2023-06-29T16:08:16.378Z,97019.50
2023-06-29T16:11:20.289Z,97021.91
2023-06-29T16:14:23.874Z,97028.44
2023-06-29T16:17:28.179Z,97027.38
2023-06-29T16:20:32.454Z,97025.38
2023-06-29T16:23:36.503Z,97027.47
2023-06-29T16:26:40.906Z,97027.34
2023-06-29T16:29:52.358Z,97025.81
2023-06-29T16:32:56.474Z,97021.78
2023-06-29T16:36:00.247Z,97020.03
2023-06-29T16:39:04.086Z,97019.72
2023-06-29T16:42:08.433Z,97013.25
2023-06-29T16:45:12.286Z,97008.59
2023-06-29T16:48:16.412Z,97006.19
2023-06-29T16:51:25.382Z,97003.31
2023-06-29T16:54:29.514Z,97002.84
2023-06-29T16:57:34.683Z,97005.44
2023-06-29T17:00:42.026Z,97001.59
2023-06-29T17:03:47.575Z,97005.75
2023-06-29T17:06:52.104Z,96998.28
2023-06-29T17:09:56.554Z,97002.03
2023-06-29T17:13:02.740Z,97012.66
2023-06-29T17:22:55.215Z,97007.78
2023-06-29T17:29:37.821Z,96997.00
2023-06-29T17:32:47.720Z,96991.09
2023-06-29T17:35:51.898Z,96996.59
2023-06-29T17:38:59.924Z,97003.53
2023-06-29T17:42:07.937Z,97003.44
2023-06-29T17:48:35.551Z,97017.75
2023-06-29T17:51:40.083Z,97015.78
2023-06-29T17:54:47.054Z,97014.28
2023-06-29T17:57:52.707Z,97022.88
2023-06-29T18:00:56.753Z,97033.41
2023-06-29T18:04:00.905Z,97032.91
2023-06-29T18:07:05.768Z,97033.72
2023-06-29T18:10:10.047Z,97035.06
2023-06-29T18:13:18.205Z,97033.59
2023-06-29T18:16:23.961Z,97038.91
2023-06-29T18:19:28.277Z,97037.75
2023-06-29T18:22:33.707Z,97039.41
2023-06-29T18:25:37.500Z,97044.19
2023-06-29T18:28:43.400Z,97052.75
2023-06-29T18:31:48.234Z,97039.84
2023-06-29T18:34:55.661Z,97046.13
2023-06-29T18:37:59.939Z,97050.88
2023-06-29T18:41:04.391Z,97064.56
2023-06-29T18:44:08.361Z,97058.50
2023-06-29T18:47:13.339Z,97054.22
2023-06-29T18:50:17.859Z,97052.59
2023-06-29T18:53:21.927Z,97061.13
2023-06-29T18:56:26.030Z,97066.38
2023-06-29T18:59:29.810Z,97058.84
2023-06-29T19:02:35.168Z,97049.84
2023-06-29T19:05:39.814Z,97056.28
2023-06-29T19:08:45.395Z,97061.09
2023-06-29T19:11:49.450Z,97053.69
2023-06-29T19:14:53.421Z,97063.59
2023-06-29T19:17:57.352Z,97071.81
2023-06-29T19:21:04.162Z,97078.31
2023-06-29T19:24:08.207Z,97085.50
2023-06-29T19:27:13.020Z,97072.72
2023-06-29T19:30:17.355Z,97073.88
2023-06-29T19:33:21.745Z,97075.81
2023-06-29T19:36:26.919Z,97089.47
2023-06-29T19:42:58.627Z,97088.94
2023-06-29T19:49:27.226Z,97097.72
2023-06-29T19:52:37.371Z,97105.53
2023-06-29T19:55:41.680Z,97112.06
2023-06-29T20:05:33.682Z,97128.03
2023-06-29T20:12:01.313Z,97132.13
2023-06-29T20:21:17.005Z,97124.50
2023-06-29T20:24:23.683Z,97131.50
2023-06-29T20:30:50.239Z,97151.84
2023-06-29T20:33:54.496Z,97155.31
2023-06-29T20:36:59.797Z,97141.28
2023-06-29T20:40:04.775Z,97137.97
2023-06-29T20:43:08.966Z,97144.78
2023-06-29T20:46:12.952Z,97145.66
2023-06-29T20:49:17.003Z,97149.81
2023-06-29T20:52:21.208Z,97147.97
2023-06-29T20:55:25.774Z,97145.78
2023-06-29T20:58:29.647Z,97154.06
2023-06-29T21:01:35.284Z,97156.25
2023-06-29T21:04:39.734Z,97160.66
2023-06-29T21:07:45.107Z,97155.28
2023-06-29T21:10:52.110Z,97162.03
2023-06-29T21:13:56.653Z,97158.88
2023-06-29T21:17:01.008Z,97160.31
2023-06-29T21:20:08.242Z,97166.31
2023-06-29T21:23:14.626Z,97164.03
2023-06-29T21:26:18.844Z,97174.00
2023-06-29T21:29:34.495Z,97173.63
2023-06-29T21:32:45.364Z,97171.16
2023-06-29T21:35:49.330Z,97172.28
2023-06-29T21:38:53.231Z,97171.69
2023-06-29T21:42:00.942Z,97180.00
2023-06-29T21:45:05.148Z,97183.44
2023-06-29T21:48:09.896Z,97175.69
2023-06-29T21:51:15.744Z,97188.63
2023-06-29T21:54:19.790Z,97180.81
2023-06-29T21:57:24.198Z,97182.59
2023-06-29T22:00:28.134Z,97183.44
2023-06-29T22:03:33.320Z,97169.50
2023-06-29T22:06:40.121Z,97154.34
2023-06-29T22:09:44.381Z,97150.41
2023-06-29T22:12:48.853Z,97151.19
2023-06-29T22:15:53.439Z,97140.13
2023-06-29T22:18:57.852Z,97144.63
2023-06-29T22:22:05.902Z,97141.41
2023-06-29T22:25:10.302Z,97126.09
2023-06-29T22:28:14.671Z,97127.03
2023-06-29T22:31:21.481Z,97128.22
2023-06-29T22:34:29.264Z,97128.06
2023-06-29T22:37:33.545Z,97132.81
2023-06-29T22:40:38.108Z,97128.72
2023-06-29T22:43:42.405Z,97126.22
2023-06-29T22:46:46.689Z,97113.78
2023-06-29T22:49:50.950Z,97118.69
2023-06-29T22:52:55.666Z,97114.09
2023-06-29T22:55:59.908Z,97117.09
2023-06-29T22:59:03.961Z,97115.19
2023-06-29T23:02:08.102Z,97114.03
2023-06-29T23:05:14.343Z,97118.03
2023-06-29T23:08:20.991Z,97123.28
2023-06-29T23:14:32.735Z,97136.34
2023-06-29T23:17:37.522Z,97155.25
2023-06-29T23:20:46.065Z,97138.72
2023-06-29T23:23:57.733Z,97148.06
2023-06-29T23:27:06.336Z,97154.66
2023-06-29T23:33:17.335Z,97148.03
2023-06-29T23:36:22.040Z,97134.72
2023-06-29T23:39:25.940Z,97138.19
2023-06-29T23:42:29.949Z,97134.72
2023-06-29T23:45:34.098Z,97149.28
2023-06-29T23:52:13.706Z,97141.50
2023-06-29T23:58:38.652Z,97146.31
